Holbeach, United Kingdom
Current Conditions -  °F | °C
As of 9:50 AM on Tuesday 21 Oct 2014 (Local Time) from EGXC Reporting Station
Scattered Clouds Scattered Clouds  
Wind Chill: 54°   Ceiling: Unl
Heat Index: 54°   Visibility: 6mi
Dew Point: 45°   Wind: 23mph
Humidity: 72%   Direction: 280°W
Pressure: 29.44"   Gusts: NA
Location:  52.8°N, 0.01°E
Report Text: EGXC 210850Z 28020KT 9999 FEW022 SCT035 12/07 Q0997 RERA BLU TEMPO 6000 SHRA SCT018 WHT
Loading
Personal Weather Stations






























Interactive Weather Map New forecast layout! Learn more

10-Day Weather Forecast

Advertisements
Track Severe Weather on mobile